createdAt,value
2022-11-08T00:01:11.143Z,98685.74
2022-11-08T00:03:38.003Z,98678.61
2022-11-08T00:06:04.545Z,98672.58
2022-11-08T00:08:31.085Z,98669.79
2022-11-08T00:11:04.926Z,98670.61
2022-11-08T00:13:31.383Z,98673.52
2022-11-08T00:16:00.655Z,98668.47
2022-11-08T00:18:27.368Z,98672.14
2022-11-08T00:20:53.933Z,98670.31
2022-11-08T00:23:20.471Z,98662.62
2022-11-08T00:25:53.513Z,98666.91
2022-11-08T00:28:20.440Z,98671.54
2022-11-08T00:30:47.020Z,98672.91
2022-11-08T00:33:13.500Z,98673.59
2022-11-08T00:35:39.943Z,98673.90
2022-11-08T00:38:06.635Z,98677.48
2022-11-08T00:40:34.863Z,98673.82
2022-11-08T00:43:01.371Z,98671.16
2022-11-08T00:45:27.848Z,98669.99
2022-11-08T00:47:54.388Z,98677.23
2022-11-08T00:50:20.922Z,98676.11
2022-11-08T00:52:47.668Z,98672.06
2022-11-08T00:55:14.141Z,98672.11
2022-11-08T00:57:58.440Z,98669.71
2022-11-08T01:00:26.128Z,98674.02
2022-11-08T01:02:52.668Z,98672.62
2022-11-08T01:05:19.209Z,98674.65
2022-11-08T01:07:45.751Z,98672.39
2022-11-08T01:10:12.194Z,98673.53
2022-11-08T01:12:38.729Z,98672.11
2022-11-08T01:15:06.272Z,98674.46
2022-11-08T01:17:32.842Z,98671.83
2022-11-08T01:19:59.377Z,98663.55
2022-11-08T01:22:27.589Z,98665.35
2022-11-08T01:24:54.092Z,98667.67
2022-11-08T01:27:20.634Z,98669.31
2022-11-08T01:29:47.119Z,98665.14
2022-11-08T01:32:13.713Z,98662.98
2022-11-08T01:34:40.346Z,98660.62
2022-11-08T01:37:06.901Z,98661.70
2022-11-08T01:39:33.463Z,98657.98
2022-11-08T01:41:59.984Z,98656.18
2022-11-08T01:44:26.431Z,98652.33
2022-11-08T01:46:53.067Z,98652.58
2022-11-08T01:49:33.425Z,98652.17
2022-11-08T01:52:18.602Z,98653.10
2022-11-08T01:55:15.050Z,98652.66
2022-11-08T01:57:50.922Z,98648.31
2022-11-08T02:00:17.957Z,98643.80
2022-11-08T02:02:49.715Z,98644.98
2022-11-08T02:05:18.300Z,98648.01
2022-11-08T02:07:44.782Z,98645.89
2022-11-08T02:10:11.692Z,98650.61
2022-11-08T02:12:38.174Z,98647.80
2022-11-08T02:15:05.284Z,98648.59
2022-11-08T02:17:31.938Z,98644.56
2022-11-08T02:19:58.451Z,98646.02
2022-11-08T02:22:33.412Z,98642.52
2022-11-08T02:24:59.969Z,98642.77
2022-11-08T02:27:26.501Z,98639.96
2022-11-08T02:29:54.380Z,98636.49
2022-11-08T02:32:21.935Z,98644.13
2022-11-08T02:34:56.156Z,98641.14
2022-11-08T02:37:25.556Z,98640.92
2022-11-08T02:39:52.105Z,98641.39
2022-11-08T02:42:20.492Z,98643.35
2022-11-08T02:44:47.617Z,98642.41
2022-11-08T02:47:14.924Z,98643.87
2022-11-08T02:49:41.752Z,98641.89
2022-11-08T02:52:08.593Z,98642.58
2022-11-08T02:54:35.138Z,98640.55
2022-11-08T02:57:01.672Z,98643.04
2022-11-08T02:59:28.213Z,98639.14
2022-11-08T03:01:54.931Z,98637.77
2022-11-08T03:04:21.910Z,98636.81
2022-11-08T03:06:48.387Z,98634.62
2022-11-08T03:09:14.890Z,98630.84
2022-11-08T03:11:41.635Z,98634.95
2022-11-08T03:14:08.385Z,98637.05
2022-11-08T03:16:34.920Z,98633.85
2022-11-08T03:19:01.453Z,98636.46
2022-11-08T03:21:27.996Z,98636.34
2022-11-08T03:23:54.670Z,98638.92
2022-11-08T03:26:21.180Z,98638.58
2022-11-08T03:28:47.725Z,98640.77
2022-11-08T03:31:14.163Z,98640.42
2022-11-08T03:33:40.706Z,98641.60
2022-11-08T03:36:07.980Z,98647.42
2022-11-08T03:38:34.413Z,98645.91
2022-11-08T03:41:00.833Z,98643.30
2022-11-08T03:43:27.336Z,98647.08
2022-11-08T03:45:53.811Z,98647.40
2022-11-08T03:48:20.605Z,98649.77
2022-11-08T03:50:47.392Z,98646.35
2022-11-08T03:53:13.849Z,98650.83
2022-11-08T03:55:40.385Z,98650.14
2022-11-08T03:58:07.030Z,98653.21
2022-11-08T04:00:33.975Z,98651.48
2022-11-08T04:03:03.117Z,98650.47
2022-11-08T04:05:31.008Z,98652.37
2022-11-08T04:07:57.904Z,98648.95
2022-11-08T04:10:24.340Z,98642.45
2022-11-08T04:12:50.816Z,98647.95
2022-11-08T04:15:20.818Z,98645.14
2022-11-08T04:17:50.755Z,98644.55
2022-11-08T04:20:17.258Z,98647.29
2022-11-08T04:22:43.696Z,98645.66
2022-11-08T04:25:10.241Z,98641.84
2022-11-08T04:27:36.808Z,98642.46
2022-11-08T04:30:03.956Z,98641.04
2022-11-08T04:32:30.472Z,98643.02
2022-11-08T04:34:56.909Z,98645.34
2022-11-08T04:37:23.451Z,98642.50
2022-11-08T04:39:50.052Z,98641.59
2022-11-08T04:42:16.467Z,98638.89
2022-11-08T04:44:42.963Z,98634.29
2022-11-08T04:47:09.503Z,98638.59
2022-11-08T04:49:36.046Z,98634.76
2022-11-08T04:52:02.589Z,98636.84
2022-11-08T04:54:29.063Z,98636.56
2022-11-08T04:56:55.570Z,98634.63
2022-11-08T04:59:22.220Z,98636.13
2022-11-08T05:01:48.832Z,98635.57
2022-11-08T05:04:15.591Z,98637.18
2022-11-08T05:06:42.033Z,98633.95
2022-11-08T05:09:10.315Z,98634.99
2022-11-08T05:11:36.763Z,98631.70
2022-11-08T05:14:03.299Z,98633.67
2022-11-08T05:16:32.243Z,98630.13
2022-11-08T05:18:59.773Z,98628.77
2022-11-08T05:21:26.916Z,98629.32
2022-11-08T05:23:53.371Z,98629.38
2022-11-08T05:26:20.307Z,98625.69
2022-11-08T05:28:47.884Z,98627.48
2022-11-08T05:31:14.875Z,98628.39
2022-11-08T05:33:41.975Z,98629.20
2022-11-08T05:36:11.757Z,98634.79
2022-11-08T05:38:39.829Z,98640.18
2022-11-08T05:41:13.075Z,98642.17
2022-11-08T05:43:40.324Z,98645.52
2022-11-08T05:46:07.478Z,98650.22
2022-11-08T05:48:34.637Z,98650.13
2022-11-08T05:51:01.587Z,98648.98
2022-11-08T05:53:28.075Z,98647.27
2022-11-08T05:56:02.506Z,98651.25
2022-11-08T05:58:31.241Z,98651.63
2022-11-08T06:01:12.817Z,98652.58
2022-11-08T06:03:39.530Z,98646.77
2022-11-08T06:06:09.407Z,98648.16
2022-11-08T06:08:35.933Z,98651.34
2022-11-08T06:11:07.800Z,98651.26
2022-11-08T06:13:35.071Z,98651.58
2022-11-08T06:16:03.637Z,98651.02
2022-11-08T06:18:31.309Z,98654.09
2022-11-08T06:20:59.242Z,98652.97
2022-11-08T06:23:25.936Z,98652.77
2022-11-08T06:25:52.471Z,98653.84
2022-11-08T06:28:19.521Z,98651.11
2022-11-08T06:30:47.189Z,98653.06
2022-11-08T06:33:14.087Z,98649.42
2022-11-08T06:35:40.780Z,98648.56
2022-11-08T06:38:09.460Z,98658.60
2022-11-08T06:40:38.082Z,98660.14
2022-11-08T06:43:04.814Z,98658.73
2022-11-08T06:45:31.961Z,98664.11
2022-11-08T06:48:02.597Z,98662.55
2022-11-08T06:50:31.076Z,98668.71
2022-11-08T06:52:58.420Z,98675.56
2022-11-08T06:55:25.287Z,98673.61
2022-11-08T06:57:51.941Z,98671.55
2022-11-08T07:00:19.183Z,98667.05
2022-11-08T07:02:45.861Z,98662.46
2022-11-08T07:05:12.673Z,98667.73
2022-11-08T07:07:39.416Z,98671.03
2022-11-08T07:10:06.493Z,98669.20
2022-11-08T07:12:33.012Z,98673.15
2022-11-08T07:14:59.475Z,98676.29
2022-11-08T07:17:26.090Z,98681.08
2022-11-08T07:19:52.627Z,98678.55
2022-11-08T07:22:19.127Z,98676.89
2022-11-08T07:24:45.826Z,98672.08
2022-11-08T07:27:12.252Z,98670.27
2022-11-08T07:29:38.672Z,98674.36
2022-11-08T07:32:05.132Z,98676.30
2022-11-08T07:34:31.667Z,98672.02
2022-11-08T07:36:58.207Z,98676.21
2022-11-08T07:39:24.747Z,98674.88
2022-11-08T07:41:51.174Z,98678.90
2022-11-08T07:44:20.589Z,98677.35
2022-11-08T07:46:47.440Z,98678.68
2022-11-08T07:49:13.873Z,98680.89
2022-11-08T07:51:40.336Z,98677.03
2022-11-08T07:54:06.793Z,98675.32
2022-11-08T07:56:33.227Z,98671.00
2022-11-08T07:58:59.735Z,98674.29
2022-11-08T08:01:26.198Z,98673.91
2022-11-08T08:03:52.719Z,98668.28
2022-11-08T08:06:19.249Z,98664.05
2022-11-08T08:08:45.788Z,98663.42
2022-11-08T08:11:12.222Z,98662.54
2022-11-08T08:13:38.751Z,98658.27
2022-11-08T08:16:05.328Z,98660.81
2022-11-08T08:18:31.943Z,98655.72
2022-11-08T08:20:59.253Z,98655.30
2022-11-08T08:23:25.864Z,98647.84
2022-11-08T08:25:52.526Z,98645.44
2022-11-08T08:28:19.000Z,98643.73
2022-11-08T08:30:45.482Z,98645.84
2022-11-08T08:33:27.774Z,98645.11
2022-11-08T08:35:55.951Z,98643.61
2022-11-08T08:38:22.496Z,98639.50
2022-11-08T08:40:48.928Z,98640.91
2022-11-08T08:43:15.701Z,98644.19
2022-11-08T08:45:42.517Z,98645.34
2022-11-08T08:48:09.155Z,98641.72
2022-11-08T08:50:35.635Z,98640.73
2022-11-08T08:53:04.517Z,98635.80
2022-11-08T08:55:32.340Z,98636.25
2022-11-08T08:57:58.903Z,98636.67
2022-11-08T09:03:12.768Z,98630.80
2022-11-08T09:05:40.439Z,98634.15
2022-11-08T09:08:07.103Z,98634.80
2022-11-08T09:10:33.926Z,98633.92
2022-11-08T09:13:02.105Z,98631.09
2022-11-08T09:15:28.647Z,98630.94
2022-11-08T09:17:56.214Z,98628.83
2022-11-08T09:20:23.743Z,98623.73
2022-11-08T09:22:50.316Z,98622.20
2022-11-08T09:25:17.372Z,98620.57
2022-11-08T09:27:43.804Z,98616.88
2022-11-08T09:30:10.651Z,98616.04
2022-11-08T09:32:59.856Z,98612.19
2022-11-08T09:35:24.518Z,98612.63
2022-11-08T09:37:53.820Z,98617.09
2022-11-08T09:40:37.418Z,98614.98
2022-11-08T09:43:28.377Z,98610.44
2022-11-08T09:45:54.879Z,98604.89
2022-11-08T09:48:44.910Z,98605.73
2022-11-08T09:51:17.490Z,98603.29
2022-11-08T09:54:01.801Z,98598.65
2022-11-08T09:56:37.916Z,98592.39
2022-11-08T09:59:20.482Z,98592.13
2022-11-08T10:01:48.889Z,98592.94
2022-11-08T10:04:23.788Z,98593.58
2022-11-08T10:07:23.780Z,98594.75
2022-11-08T10:10:28.347Z,98593.23
2022-11-08T10:13:12.879Z,98588.75
2022-11-08T10:15:51.700Z,98587.69
2022-11-08T10:18:34.518Z,98585.01
2022-11-08T10:21:36.526Z,98584.70
2022-11-08T10:24:21.576Z,98586.45
2022-11-08T10:26:52.290Z,98580.34
2022-11-08T10:29:25.411Z,98575.86
2022-11-08T10:31:58.374Z,98574.15
2022-11-08T10:34:29.023Z,98569.78
2022-11-08T10:37:05.223Z,98565.63
2022-11-08T10:39:38.060Z,98569.65
2022-11-08T10:42:12.609Z,98566.70
2022-11-08T10:44:41.129Z,98565.73
2022-11-08T10:47:16.932Z,98570.55
2022-11-08T10:49:44.010Z,98566.34
2022-11-08T10:52:19.555Z,98564.16
2022-11-08T10:54:56.765Z,98563.29
2022-11-08T10:57:32.514Z,98559.38
2022-11-08T11:00:37.721Z,98557.88
2022-11-08T11:03:09.956Z,98555.45
2022-11-08T11:05:54.951Z,98553.22
2022-11-08T11:08:21.726Z,98548.98
2022-11-08T11:10:49.823Z,98548.73
2022-11-08T11:13:24.074Z,98542.61
2022-11-08T11:16:00.531Z,98543.64
2022-11-08T11:18:45.065Z,98540.12
2022-11-08T11:21:20.860Z,98538.29
2022-11-08T11:23:50.138Z,98538.60
2022-11-08T11:26:31.308Z,98537.48
2022-11-08T11:29:06.722Z,98533.59
2022-11-08T11:31:39.248Z,98532.41
2022-11-08T11:34:17.797Z,98530.08
2022-11-08T11:37:24.992Z,98528.59
2022-11-08T11:40:07.073Z,98523.74
2022-11-08T11:42:47.149Z,98518.03
2022-11-08T11:45:28.721Z,98512.23
2022-11-08T11:47:56.798Z,98510.64
2022-11-08T11:50:34.446Z,98507.45
2022-11-08T11:53:06.992Z,98509.25
2022-11-08T11:55:39.441Z,98501.34
2022-11-08T11:58:42.150Z,98499.48
2022-11-08T12:01:47.729Z,98493.61
2022-11-08T12:04:58.609Z,98489.84
2022-11-08T12:08:09.464Z,98488.52
2022-11-08T12:11:20.341Z,98483.43
2022-11-08T12:14:31.923Z,98479.64
2022-11-08T12:17:42.413Z,98479.98
2022-11-08T12:20:53.400Z,98474.10
2022-11-08T12:24:04.690Z,98471.22
2022-11-08T12:26:56.315Z,98473.13
2022-11-08T12:30:07.913Z,98470.02
2022-11-08T12:33:18.903Z,98471.61
2022-11-08T12:36:29.987Z,98471.02
2022-11-08T12:39:40.478Z,98472.30
2022-11-08T12:42:51.552Z,98472.17
2022-11-08T12:45:55.233Z,98471.46
2022-11-08T12:48:46.551Z,98468.23
2022-11-08T12:51:25.818Z,98466.23
2022-11-08T12:54:14.176Z,98467.27
2022-11-08T12:56:44.514Z,98463.30
2022-11-08T12:59:17.316Z,98464.91
2022-11-08T13:01:44.522Z,98466.81
2022-11-08T13:04:17.771Z,98467.58
2022-11-08T13:07:02.874Z,98464.91
2022-11-08T13:09:53.625Z,98463.42
2022-11-08T13:12:40.664Z,98465.60
2022-11-08T13:15:22.552Z,98465.80
2022-11-08T13:18:07.421Z,98470.60
2022-11-08T13:20:40.610Z,98470.27
2022-11-08T13:23:12.821Z,98476.23
2022-11-08T13:25:40.966Z,98474.77
2022-11-08T13:28:46.671Z,98469.66
2022-11-08T13:31:32.124Z,98465.48
2022-11-08T13:34:07.379Z,98462.89
2022-11-08T13:36:51.311Z,98461.32
2022-11-08T13:39:42.324Z,98458.84
2022-11-08T13:42:18.076Z,98458.54
2022-11-08T13:44:56.860Z,98462.92
2022-11-08T13:47:46.587Z,98462.09
2022-11-08T13:50:28.296Z,98458.77
2022-11-08T13:53:09.978Z,98457.16
2022-11-08T13:55:42.508Z,98461.96
2022-11-08T13:58:37.257Z,98467.91
2022-11-08T14:01:20.640Z,98467.04
2022-11-08T14:03:47.239Z,98467.91
2022-11-08T14:06:24.381Z,98470.23
2022-11-08T14:09:09.095Z,98472.45
2022-11-08T14:12:01.761Z,98476.27
2022-11-08T14:14:38.987Z,98475.29
2022-11-08T14:17:14.387Z,98477.41
2022-11-08T14:19:43.592Z,98475.41
2022-11-08T14:22:23.336Z,98476.12
2022-11-08T14:24:52.912Z,98478.00
2022-11-08T14:27:39.787Z,98476.77
2022-11-08T14:30:15.620Z,98477.41
2022-11-08T14:32:42.158Z,98473.59
2022-11-08T14:35:12.863Z,98475.35
2022-11-08T14:37:42.913Z,98470.95
2022-11-08T14:40:24.194Z,98474.02
2022-11-08T14:42:52.574Z,98476.39
2022-11-08T14:45:25.509Z,98476.09
2022-11-08T14:47:57.673Z,98477.33
2022-11-08T14:50:30.980Z,98479.12
2022-11-08T14:53:17.721Z,98476.02
2022-11-08T14:55:45.115Z,98476.77
2022-11-08T14:58:15.641Z,98475.52
2022-11-08T15:00:43.668Z,98477.91
2022-11-08T15:03:19.809Z,98476.86
2022-11-08T15:06:01.688Z,98481.54
2022-11-08T15:08:35.083Z,98481.78
2022-11-08T15:11:09.041Z,98483.20
2022-11-08T15:13:42.913Z,98490.23
2022-11-08T15:16:10.566Z,98486.85
2022-11-08T15:18:42.227Z,98489.41
2022-11-08T15:21:11.844Z,98490.09
2022-11-08T15:23:48.921Z,98490.65
2022-11-08T15:26:33.994Z,98490.25
2022-11-08T15:29:14.053Z,98491.77
2022-11-08T15:32:01.466Z,98492.77
2022-11-08T15:34:37.341Z,98491.41
2022-11-08T15:37:27.122Z,98489.83
2022-11-08T15:39:54.887Z,98492.80
2022-11-08T15:42:21.963Z,98490.65
2022-11-08T15:45:17.846Z,98490.20
2022-11-08T15:47:47.173Z,98491.49
2022-11-08T15:50:16.370Z,98494.38
2022-11-08T15:52:43.373Z,98493.96
2022-11-08T15:55:15.341Z,98491.28
2022-11-08T15:57:44.209Z,98492.33
2022-11-08T16:00:15.064Z,98493.59
2022-11-08T16:02:41.559Z,98494.36
2022-11-08T16:05:23.158Z,98493.33
2022-11-08T16:07:50.606Z,98495.33
2022-11-08T16:10:20.314Z,98497.00
2022-11-08T16:12:47.881Z,98494.64
2022-11-08T16:15:17.514Z,98494.76
2022-11-08T16:17:44.034Z,98495.23
2022-11-08T16:20:29.110Z,98497.79
2022-11-08T16:23:00.563Z,98501.70
2022-11-08T16:25:28.027Z,98506.20
2022-11-08T16:28:03.644Z,98508.48
2022-11-08T16:30:33.375Z,98509.19
2022-11-08T16:33:00.754Z,98511.77
2022-11-08T16:35:27.297Z,98511.91
2022-11-08T16:37:53.930Z,98513.38
2022-11-08T16:40:24.873Z,98510.94
2022-11-08T16:42:53.321Z,98515.44
2022-11-08T16:45:37.302Z,98517.95
2022-11-08T16:48:16.207Z,98516.23
2022-11-08T16:50:43.164Z,98520.49
2022-11-08T16:53:15.872Z,98523.55
2022-11-08T16:55:42.344Z,98524.42
2022-11-08T16:58:08.844Z,98525.10
2022-11-08T17:00:36.782Z,98526.27
2022-11-08T17:03:03.288Z,98528.37
2022-11-08T17:05:29.793Z,98532.43
2022-11-08T17:07:56.849Z,98526.27
2022-11-08T17:10:25.848Z,98524.63
2022-11-08T17:12:53.094Z,98519.02
2022-11-08T17:15:22.489Z,98522.15
2022-11-08T17:17:49.120Z,98521.29
2022-11-08T17:20:17.755Z,98521.67
2022-11-08T17:22:45.397Z,98521.21
2022-11-08T17:25:15.690Z,98525.02
2022-11-08T17:27:43.091Z,98522.47
2022-11-08T17:30:11.970Z,98521.83
2022-11-08T17:32:40.057Z,98519.11
2022-11-08T17:35:08.760Z,98517.91
2022-11-08T17:37:36.002Z,98516.60
2022-11-08T17:40:04.719Z,98520.16
2022-11-08T17:42:34.168Z,98518.06
2022-11-08T17:45:04.529Z,98517.79
2022-11-08T17:47:30.996Z,98514.88
2022-11-08T17:49:57.510Z,98513.77
2022-11-08T17:52:23.962Z,98511.33
2022-11-08T17:54:53.082Z,98509.73
2022-11-08T17:57:19.926Z,98512.73
2022-11-08T17:59:46.733Z,98505.45
2022-11-08T18:02:13.317Z,98506.98
2022-11-08T18:04:39.905Z,98509.24
2022-11-08T18:07:06.669Z,98510.40
2022-11-08T18:09:33.342Z,98514.81
2022-11-08T18:12:00.038Z,98512.91
2022-11-08T18:14:28.596Z,98513.47
2022-11-08T18:16:55.983Z,98514.02
2022-11-08T18:19:23.035Z,98513.77
2022-11-08T18:21:49.723Z,98509.21
2022-11-08T18:24:16.658Z,98514.77
2022-11-08T18:26:43.882Z,98516.63
2022-11-08T18:29:10.429Z,98515.73
2022-11-08T18:31:36.960Z,98516.63
2022-11-08T18:34:03.541Z,98514.95
2022-11-08T18:36:31.378Z,98513.16
2022-11-08T18:39:01.509Z,98513.23
2022-11-08T18:41:31.042Z,98512.65
2022-11-08T18:43:59.465Z,98510.23
2022-11-08T18:46:28.426Z,98507.18
2022-11-08T18:48:55.544Z,98508.96
2022-11-08T18:51:23.000Z,98509.38
2022-11-08T18:53:50.056Z,98510.52
2022-11-08T18:56:16.635Z,98512.52
2022-11-08T18:58:43.847Z,98516.31
2022-11-08T19:01:10.583Z,98517.83
2022-11-08T19:03:37.261Z,98523.36
2022-11-08T19:06:04.287Z,98522.27
2022-11-08T19:08:31.473Z,98522.90
2022-11-08T19:11:00.268Z,98524.87
2022-11-08T19:13:29.577Z,98525.29
2022-11-08T19:15:57.168Z,98524.40
2022-11-08T19:18:24.352Z,98524.80
2022-11-08T19:20:59.310Z,98524.77
2022-11-08T19:23:26.438Z,98527.15
2022-11-08T19:26:00.848Z,98529.41
2022-11-08T19:28:32.677Z,98533.96
2022-11-08T19:31:00.300Z,98537.66
2022-11-08T19:33:28.726Z,98537.85
2022-11-08T19:35:59.778Z,98535.38
2022-11-08T19:38:26.372Z,98537.34
2022-11-08T19:40:53.164Z,98537.02
2022-11-08T19:43:20.371Z,98537.41
2022-11-08T19:45:53.927Z,98538.69
2022-11-08T19:48:21.682Z,98541.55
2022-11-08T19:50:48.725Z,98539.95
2022-11-08T19:53:15.576Z,98544.02
2022-11-08T19:55:48.688Z,98538.67
2022-11-08T19:58:15.707Z,98541.77
2022-11-08T20:00:42.753Z,98545.67
2022-11-08T20:03:09.398Z,98546.25
2022-11-08T20:05:36.263Z,98550.45
2022-11-08T20:08:03.468Z,98550.13
2022-11-08T20:10:30.384Z,98547.73
2022-11-08T20:12:57.631Z,98547.21
2022-11-08T20:15:24.591Z,98548.77
2022-11-08T20:17:51.437Z,98549.14
2022-11-08T20:20:18.147Z,98545.95
2022-11-08T20:22:48.044Z,98548.05
2022-11-08T20:25:15.013Z,98550.34
2022-11-08T20:27:41.654Z,98552.27
2022-11-08T20:30:09.091Z,98548.19
2022-11-08T20:32:35.503Z,98542.09
2022-11-08T20:35:04.185Z,98538.54
2022-11-08T20:37:31.109Z,98538.05
2022-11-08T20:39:57.640Z,98537.95
2022-11-08T20:42:24.143Z,98541.33
2022-11-08T20:44:50.810Z,98544.86
2022-11-08T20:47:17.259Z,98543.55
2022-11-08T20:49:43.800Z,98545.00
2022-11-08T20:52:10.340Z,98539.52
2022-11-08T20:54:42.703Z,98540.09
2022-11-08T20:57:10.349Z,98534.10
2022-11-08T20:59:36.929Z,98539.99
2022-11-08T21:02:03.643Z,98540.02
2022-11-08T21:04:30.316Z,98539.21
2022-11-08T21:07:50.928Z,98534.84
2022-11-08T21:09:50.078Z,98537.81
2022-11-08T21:12:18.359Z,98538.20
2022-11-08T21:14:44.942Z,98536.95
2022-11-08T21:17:26.651Z,98535.47
2022-11-08T21:19:53.154Z,98535.67
2022-11-08T21:22:19.926Z,98536.90
2022-11-08T21:24:48.060Z,98535.23
2022-11-08T21:27:15.798Z,98541.61
2022-11-08T21:29:42.408Z,98538.67
2022-11-08T21:32:08.903Z,98537.85
2022-11-08T21:34:35.388Z,98539.29
2022-11-08T21:37:01.932Z,98536.82
2022-11-08T21:39:28.472Z,98541.52
2022-11-08T21:41:54.947Z,98537.77
2022-11-08T21:44:21.360Z,98535.41
2022-11-08T21:46:48.185Z,98535.56
2022-11-08T21:49:14.730Z,98530.11
2022-11-08T21:51:41.263Z,98531.88
2022-11-08T21:54:07.914Z,98536.89
2022-11-08T21:56:34.969Z,98535.20
2022-11-08T21:59:02.072Z,98535.39
2022-11-08T22:01:30.940Z,98539.10
2022-11-08T22:03:59.193Z,98537.96
2022-11-08T22:06:26.251Z,98536.63
2022-11-08T22:08:53.041Z,98536.92
2022-11-08T22:11:19.636Z,98535.91
2022-11-08T22:13:46.090Z,98534.02
2022-11-08T22:16:13.024Z,98533.89
2022-11-08T22:21:26.442Z,98537.02
2022-11-08T22:23:53.021Z,98536.60
2022-11-08T22:26:19.470Z,98537.23
2022-11-08T22:28:46.001Z,98536.79
2022-11-08T22:31:12.549Z,98533.45
2022-11-08T22:33:39.083Z,98534.90
2022-11-08T22:36:06.239Z,98533.33
2022-11-08T22:38:32.780Z,98532.14
2022-11-08T22:40:59.240Z,98525.33
2022-11-08T22:43:25.752Z,98527.00
2022-11-08T22:45:52.294Z,98526.81
2022-11-08T22:48:19.093Z,98521.20
2022-11-08T22:50:45.849Z,98520.55
2022-11-08T22:53:12.327Z,98520.05
2022-11-08T22:55:38.749Z,98519.77
2022-11-08T22:58:05.408Z,98519.84
2022-11-08T23:00:31.891Z,98519.88
2022-11-08T23:02:58.593Z,98518.73
2022-11-08T23:05:25.132Z,98519.80
2022-11-08T23:07:51.663Z,98514.71
2022-11-08T23:10:18.417Z,98508.44
2022-11-08T23:12:45.081Z,98509.25
2022-11-08T23:15:11.605Z,98509.05
2022-11-08T23:17:38.143Z,98510.25
2022-11-08T23:20:05.296Z,98507.56
2022-11-08T23:22:31.843Z,98507.48
2022-11-08T23:24:59.006Z,98501.52
2022-11-08T23:27:27.890Z,98501.83
2022-11-08T23:29:54.429Z,98501.65
2022-11-08T23:32:20.974Z,98501.12
2022-11-08T23:34:47.511Z,98499.94
2022-11-08T23:37:14.358Z,98499.83
2022-11-08T23:39:40.903Z,98502.81
2022-11-08T23:42:07.342Z,98501.97
2022-11-08T23:44:33.987Z,98498.27
2022-11-08T23:47:01.453Z,98498.52
2022-11-08T23:49:28.399Z,98503.02
2022-11-08T23:51:55.161Z,98501.90
2022-11-08T23:54:21.893Z,98502.66
2022-11-08T23:56:49.168Z,98498.81
2022-11-08T23:59:16.512Z,98499.22
